createdAt,value
2019-02-19T00:00:57.312Z,36.27
2019-02-19T00:04:03.081Z,34.90
2019-02-19T00:07:09.234Z,37.60
2019-02-19T00:10:15.068Z,36.77
2019-02-19T00:13:20.870Z,35.30
2019-02-19T00:16:26.651Z,35.77
2019-02-19T00:19:32.431Z,35.07
2019-02-19T00:22:38.189Z,33.23
2019-02-19T00:25:43.963Z,33.80
2019-02-19T00:28:49.835Z,33.53
2019-02-19T00:31:55.645Z,32.83
2019-02-19T00:35:01.430Z,32.17
2019-02-19T00:38:07.194Z,33.70
2019-02-19T00:41:13.019Z,29.63
2019-02-19T00:44:18.817Z,29.63
2019-02-19T00:47:24.599Z,30.47
2019-02-19T00:50:30.375Z,27.53
2019-02-19T00:53:36.167Z,27.13
2019-02-19T00:56:42.096Z,27.30
2019-02-19T00:59:47.873Z,29.77
2019-02-19T01:02:53.669Z,27.10
2019-02-19T01:05:59.482Z,27.87
2019-02-19T01:09:07.802Z,28.63
2019-02-19T01:12:14.090Z,26.83
2019-02-19T01:15:25.487Z,27.40
2019-02-19T01:18:27.478Z,27.23
2019-02-19T01:21:33.230Z,27.63
2019-02-19T01:24:39.035Z,26.93
2019-02-19T01:27:44.820Z,27.80
2019-02-19T01:30:50.613Z,27.63
2019-02-19T01:33:56.448Z,26.17
2019-02-19T01:37:02.230Z,27.00
2019-02-19T01:40:08.575Z,25.70
2019-02-19T01:43:14.389Z,25.90
2019-02-19T01:46:20.179Z,25.47
2019-02-19T01:49:25.958Z,24.83
2019-02-19T01:52:31.746Z,25.27
2019-02-19T01:55:37.510Z,25.13
2019-02-19T01:58:43.276Z,25.77
2019-02-19T02:01:49.073Z,25.37
2019-02-19T02:04:54.845Z,25.37
2019-02-19T02:08:00.614Z,25.53
2019-02-19T02:11:06.480Z,23.00
2019-02-19T02:14:12.262Z,23.27
2019-02-19T02:17:18.018Z,23.53
2019-02-19T02:20:23.803Z,22.33
2019-02-19T02:23:29.560Z,22.60
2019-02-19T02:26:35.394Z,22.40
2019-02-19T02:29:41.206Z,21.00
2019-02-19T02:32:47.000Z,24.63
2019-02-19T02:35:52.786Z,21.87
2019-02-19T02:38:58.601Z,25.63
2019-02-19T02:42:04.374Z,22.80
2019-02-19T02:45:10.385Z,24.03
2019-02-19T02:48:16.154Z,23.67
2019-02-19T02:51:21.930Z,23.83
2019-02-19T02:54:27.685Z,24.03
2019-02-19T02:57:33.614Z,23.63
2019-02-19T03:00:39.401Z,23.10
2019-02-19T03:03:45.184Z,23.43
2019-02-19T03:07:14.077Z,23.43
2019-02-19T03:10:19.959Z,21.17
2019-02-19T03:13:25.763Z,21.33
2019-02-19T03:16:31.511Z,21.97
2019-02-19T03:19:37.275Z,20.23
2019-02-19T03:22:43.045Z,20.70
2019-02-19T03:25:48.811Z,18.97
2019-02-19T03:28:54.595Z,19.20
2019-02-19T03:32:00.379Z,19.23
2019-02-19T03:35:06.475Z,20.27
2019-02-19T03:38:12.258Z,18.53
2019-02-19T03:41:18.063Z,19.47
2019-02-19T03:44:23.808Z,20.83
2019-02-19T03:47:29.611Z,19.03
2019-02-19T03:50:35.401Z,18.70
2019-02-19T03:53:41.150Z,19.07
2019-02-19T03:56:46.928Z,19.70
2019-02-19T03:59:52.683Z,18.60
2019-02-19T04:02:58.467Z,20.07
2019-02-19T04:06:04.439Z,20.13
2019-02-19T04:09:10.314Z,19.53
2019-02-19T04:12:16.110Z,19.83
2019-02-19T04:15:21.909Z,19.07
2019-02-19T04:18:27.669Z,19.30
2019-02-19T04:21:33.426Z,19.10
2019-02-19T04:24:39.203Z,20.50
2019-02-19T04:27:45.000Z,20.33
2019-02-19T04:30:50.758Z,20.00
2019-02-19T04:33:56.550Z,20.13
2019-02-19T04:37:02.333Z,21.20
2019-02-19T04:40:08.537Z,20.43
2019-02-19T04:43:14.355Z,20.43
2019-02-19T04:46:20.103Z,21.33
2019-02-19T04:49:25.881Z,21.53
2019-02-19T04:52:31.741Z,21.70
2019-02-19T04:55:37.530Z,21.47
2019-02-19T04:58:43.429Z,19.60
2019-02-19T05:01:49.176Z,20.13
2019-02-19T05:04:54.939Z,20.83
2019-02-19T05:08:00.692Z,20.20
2019-02-19T05:11:06.598Z,18.97
2019-02-19T05:14:12.360Z,20.87
2019-02-19T05:17:18.133Z,22.07
2019-02-19T05:20:23.892Z,22.03
2019-02-19T05:23:29.684Z,22.33
2019-02-19T05:26:35.466Z,24.73
2019-02-19T05:29:41.281Z,22.37
2019-02-19T05:32:47.172Z,24.00
2019-02-19T05:35:52.972Z,22.07
2019-02-19T05:38:58.735Z,23.67
2019-02-19T05:42:04.619Z,22.73
2019-02-19T05:45:10.520Z,23.77
2019-02-19T05:48:16.289Z,23.73
2019-02-19T05:51:22.471Z,25.00
2019-02-19T05:54:28.244Z,23.87
2019-02-19T05:57:34.018Z,23.43
2019-02-19T06:00:39.780Z,24.27
2019-02-19T06:03:45.527Z,25.70
2019-02-19T06:06:51.306Z,30.13
2019-02-19T06:09:57.045Z,30.90
2019-02-19T06:13:02.832Z,30.53
2019-02-19T06:16:08.710Z,30.70
2019-02-19T06:19:14.480Z,31.57
2019-02-19T06:22:20.317Z,31.03
2019-02-19T06:25:26.088Z,31.87
2019-02-19T06:28:31.863Z,33.87
2019-02-19T06:31:37.635Z,31.57
2019-02-19T06:34:43.415Z,32.83
2019-02-19T06:37:49.204Z,37.50
2019-02-19T06:40:55.054Z,39.23
2019-02-19T06:44:00.867Z,37.47
2019-02-19T06:47:07.236Z,33.60
2019-02-19T06:50:13.117Z,33.87
2019-02-19T06:53:18.986Z,31.27
2019-02-19T06:56:24.727Z,42.27
2019-02-19T06:59:30.608Z,37.00
2019-02-19T07:02:53.783Z,39.00
2019-02-19T07:05:59.570Z,37.83
2019-02-19T07:09:06.920Z,27.00
2019-02-19T07:12:12.717Z,26.80
2019-02-19T07:15:18.591Z,24.40
2019-02-19T07:18:24.364Z,25.87
2019-02-19T07:21:30.135Z,24.37
2019-02-19T07:24:35.964Z,23.77
2019-02-19T07:27:41.836Z,22.83
2019-02-19T07:30:47.797Z,22.97
2019-02-19T07:33:53.625Z,22.43
2019-02-19T07:36:59.467Z,21.83
2019-02-19T07:40:05.571Z,22.60
2019-02-19T07:43:11.362Z,23.50
2019-02-19T07:46:17.156Z,22.97
2019-02-19T07:49:23.214Z,24.27
2019-02-19T07:52:29.018Z,23.17
2019-02-19T07:55:34.856Z,22.00
2019-02-19T07:58:40.629Z,22.53
2019-02-19T08:01:46.414Z,20.83
2019-02-19T08:04:52.194Z,21.73
2019-02-19T08:07:58.072Z,20.80
2019-02-19T08:11:03.935Z,21.07
2019-02-19T08:14:09.716Z,20.20
2019-02-19T08:17:16.593Z,20.93
2019-02-19T08:20:22.556Z,25.80
2019-02-19T08:23:29.878Z,21.57
2019-02-19T08:26:35.883Z,20.63
2019-02-19T08:29:41.695Z,21.27
2019-02-19T08:32:47.452Z,20.47
2019-02-19T08:35:53.341Z,22.50
2019-02-19T08:38:59.156Z,21.73
2019-02-19T08:42:04.947Z,22.40
2019-02-19T08:45:10.989Z,22.13
2019-02-19T08:48:16.771Z,21.77
2019-02-19T08:51:22.554Z,23.20
2019-02-19T08:54:28.334Z,22.10
2019-02-19T08:57:34.156Z,20.73
2019-02-19T09:00:39.987Z,19.73
2019-02-19T09:03:45.784Z,19.80
2019-02-19T09:06:51.605Z,19.80
2019-02-19T09:09:57.413Z,22.10
2019-02-19T09:13:03.217Z,16.73
2019-02-19T09:16:09.017Z,18.93
2019-02-19T09:19:14.812Z,16.50
2019-02-19T09:22:20.625Z,18.07
2019-02-19T09:25:26.519Z,18.40
2019-02-19T09:28:32.352Z,19.03
2019-02-19T09:31:38.124Z,18.63
2019-02-19T09:34:43.931Z,23.03
2019-02-19T09:37:49.722Z,17.20
2019-02-19T09:40:55.505Z,17.80
2019-02-19T09:44:01.324Z,35.87
2019-02-19T09:47:07.141Z,20.03
2019-02-19T09:50:13.137Z,19.83
2019-02-19T09:53:18.937Z,19.53
2019-02-19T09:56:24.708Z,19.17
2019-02-19T09:59:30.481Z,19.00
2019-02-19T10:02:36.297Z,18.67
2019-02-19T10:05:42.129Z,18.50
2019-02-19T10:08:47.927Z,22.00
2019-02-19T10:11:53.735Z,21.57
2019-02-19T10:14:59.528Z,20.87
2019-02-19T10:18:10.361Z,19.10
2019-02-19T10:21:12.844Z,19.40
2019-02-19T10:24:18.642Z,25.00
2019-02-19T10:27:24.574Z,20.17
2019-02-19T10:30:30.383Z,24.53
2019-02-19T10:33:36.148Z,27.83
2019-02-19T10:36:41.920Z,24.77
2019-02-19T10:39:47.696Z,19.30
2019-02-19T10:42:53.470Z,21.37
2019-02-19T10:45:59.351Z,21.00
2019-02-19T10:49:06.333Z,22.13
2019-02-19T10:52:12.141Z,35.00
2019-02-19T10:55:18.074Z,22.43
2019-02-19T10:58:23.842Z,19.73
2019-02-19T11:01:29.827Z,19.40
2019-02-19T11:04:35.612Z,19.20
2019-02-19T11:07:41.382Z,19.47
2019-02-19T11:10:47.185Z,17.43
2019-02-19T11:13:53.550Z,19.73
2019-02-19T11:16:59.316Z,20.17
2019-02-19T11:20:05.418Z,17.10
2019-02-19T11:23:11.420Z,24.60
2019-02-19T11:26:17.234Z,23.73
2019-02-19T11:29:23.055Z,17.03
2019-02-19T11:32:29.050Z,27.07
2019-02-19T11:35:34.830Z,18.47
2019-02-19T11:38:40.745Z,16.53
2019-02-19T11:41:46.562Z,20.57
2019-02-19T11:44:52.331Z,17.23
2019-02-19T11:47:58.096Z,20.67
2019-02-19T11:51:03.938Z,20.10
2019-02-19T11:54:09.886Z,19.77
2019-02-19T11:57:15.660Z,21.77
2019-02-19T12:00:25.519Z,20.97
2019-02-19T12:03:31.305Z,17.73
2019-02-19T12:06:37.074Z,17.67
2019-02-19T12:09:42.887Z,16.47
2019-02-19T12:12:48.653Z,19.73
2019-02-19T12:15:54.425Z,19.10
2019-02-19T12:19:00.302Z,17.50
2019-02-19T12:22:06.100Z,22.00
2019-02-19T12:25:12.489Z,22.77
2019-02-19T12:28:18.274Z,16.47
2019-02-19T12:31:24.048Z,17.07
2019-02-19T12:34:29.868Z,20.50
2019-02-19T12:37:35.766Z,18.57
2019-02-19T12:40:41.633Z,19.00
2019-02-19T12:43:47.465Z,17.53
2019-02-19T12:46:53.243Z,20.07
2019-02-19T12:49:59.009Z,18.37
2019-02-19T12:53:04.782Z,16.47
2019-02-19T12:56:10.560Z,23.67
2019-02-19T12:59:16.346Z,15.70
2019-02-19T13:02:22.107Z,14.90
2019-02-19T13:05:27.935Z,18.90
2019-02-19T13:08:33.710Z,16.77
2019-02-19T13:11:39.595Z,19.60
2019-02-19T13:14:45.355Z,15.83
2019-02-19T13:17:51.116Z,17.50
2019-02-19T13:20:57.374Z,12.83
2019-02-19T13:24:03.142Z,13.87
2019-02-19T13:27:10.087Z,12.97
2019-02-19T13:30:16.486Z,13.00
2019-02-19T13:33:22.262Z,14.17
2019-02-19T13:36:28.065Z,14.93
2019-02-19T13:39:33.847Z,16.00
2019-02-19T13:42:39.638Z,15.47
2019-02-19T13:45:45.517Z,15.47
2019-02-19T13:48:51.364Z,14.67
2019-02-19T13:52:01.352Z,13.90
2019-02-19T13:55:17.534Z,18.70
2019-02-19T13:58:23.436Z,21.40
2019-02-19T14:01:29.234Z,25.27
2019-02-19T14:04:34.996Z,14.73
2019-02-19T14:07:40.822Z,39.87
2019-02-19T14:10:46.725Z,15.73
2019-02-19T14:14:11.852Z,17.20
2019-02-19T14:17:19.902Z,17.67
2019-02-19T14:20:47.313Z,28.60
2019-02-19T14:24:10.578Z,25.00
2019-02-19T14:27:50.606Z,19.30
2019-02-19T14:31:24.452Z,22.27
2019-02-19T14:34:49.003Z,35.43
2019-02-19T14:38:12.234Z,32.83
2019-02-19T14:41:49.230Z,27.13
2019-02-19T14:45:25.923Z,16.53
2019-02-19T14:48:56.435Z,17.40
2019-02-19T14:52:18.017Z,22.43
2019-02-19T14:55:45.817Z,25.20
2019-02-19T14:59:29.018Z,23.57
2019-02-19T15:02:56.624Z,27.83
2019-02-19T15:06:20.231Z,24.07
2019-02-19T15:09:43.457Z,30.77
2019-02-19T15:13:23.230Z,17.63
2019-02-19T15:16:55.732Z,17.30
2019-02-19T15:20:18.565Z,29.73
2019-02-19T15:23:46.213Z,27.07
2019-02-19T15:27:10.847Z,37.57
2019-02-19T15:30:46.381Z,29.33
2019-02-19T15:34:23.500Z,35.97
2019-02-19T15:37:46.721Z,37.43
2019-02-19T15:41:08.011Z,32.30
2019-02-19T15:44:32.610Z,25.60
2019-02-19T15:48:00.284Z,26.07
2019-02-19T15:51:31.079Z,44.77
2019-02-19T15:54:53.759Z,30.17
2019-02-19T15:58:17.227Z,28.47
2019-02-19T16:01:47.836Z,32.90
2019-02-19T16:05:27.545Z,29.03
2019-02-19T16:08:51.105Z,26.60
2019-02-19T16:12:08.508Z,28.60
2019-02-19T16:15:32.545Z,32.40
2019-02-19T16:18:57.829Z,36.50
2019-02-19T16:22:19.870Z,34.47
2019-02-19T16:25:37.580Z,38.27
2019-02-19T16:29:08.121Z,62.30
2019-02-19T16:32:47.841Z,55.43
2019-02-19T16:36:05.296Z,90.37
2019-02-19T16:39:38.119Z,65.17
2019-02-19T16:43:01.469Z,72.40
2019-02-19T16:46:35.353Z,77.80
2019-02-19T16:50:07.993Z,61.03
2019-02-19T16:53:44.379Z,56.63
2019-02-19T16:57:05.082Z,52.20
2019-02-19T17:00:31.328Z,46.90
2019-02-19T17:03:58.968Z,45.30
2019-02-19T17:07:16.647Z,46.40
2019-02-19T17:10:28.478Z,51.90
2019-02-19T17:14:02.156Z,58.90
2019-02-19T17:17:19.529Z,51.33
2019-02-19T17:20:44.234Z,52.83
2019-02-19T17:24:11.830Z,50.33
2019-02-19T17:27:32.510Z,79.67
2019-02-19T17:30:50.331Z,55.33
2019-02-19T17:34:18.018Z,45.53
2019-02-19T17:37:40.870Z,43.07
2019-02-19T17:41:02.613Z,38.80
2019-02-19T17:44:30.562Z,44.73
2019-02-19T17:47:54.012Z,49.97
2019-02-19T17:51:15.073Z,53.87
2019-02-19T17:54:35.158Z,69.10
2019-02-19T17:58:02.710Z,64.60
2019-02-19T18:01:27.565Z,57.77
2019-02-19T18:04:50.963Z,57.43
2019-02-19T18:08:14.229Z,54.77
2019-02-19T18:11:41.587Z,54.87
2019-02-19T18:15:05.127Z,52.57
2019-02-19T18:18:19.317Z,51.57
2019-02-19T18:21:25.128Z,46.90
2019-02-19T18:24:30.919Z,49.33
2019-02-19T18:27:36.684Z,47.60
2019-02-19T18:30:42.602Z,48.27
2019-02-19T18:33:48.409Z,50.87
2019-02-19T18:36:54.382Z,53.87
2019-02-19T18:40:00.421Z,53.80
2019-02-19T18:43:06.395Z,51.73
2019-02-19T18:46:13.256Z,52.10
2019-02-19T18:49:19.042Z,61.00
2019-02-19T18:52:24.808Z,60.23
2019-02-19T18:55:30.716Z,62.63
2019-02-19T18:58:36.534Z,81.07
2019-02-19T19:01:42.324Z,81.87
2019-02-19T19:04:48.119Z,97.23
2019-02-19T19:07:53.980Z,83.67
2019-02-19T19:10:59.949Z,116.87
2019-02-19T19:14:05.893Z,135.67
2019-02-19T19:17:11.715Z,145.07
2019-02-19T19:20:17.621Z,138.40
2019-02-19T19:23:23.599Z,138.97
2019-02-19T19:26:29.526Z,132.43
2019-02-19T19:29:35.294Z,121.80
2019-02-19T19:32:41.343Z,118.77
2019-02-19T19:35:47.121Z,123.47
2019-02-19T19:38:52.929Z,119.70
2019-02-19T19:41:58.780Z,121.60
2019-02-19T19:45:04.964Z,120.17
2019-02-19T19:48:10.777Z,119.70
2019-02-19T19:51:17.457Z,115.90
2019-02-19T19:54:23.468Z,107.97
2019-02-19T19:57:29.390Z,72.67
2019-02-19T20:00:35.198Z,85.73
2019-02-19T20:03:40.980Z,78.37
2019-02-19T20:06:46.771Z,86.53
2019-02-19T20:09:52.729Z,62.40
2019-02-19T20:12:58.710Z,59.80
2019-02-19T20:16:04.626Z,52.60
2019-02-19T20:19:10.446Z,49.23
2019-02-19T20:22:16.220Z,49.47
2019-02-19T20:25:22.073Z,49.23
2019-02-19T20:28:27.974Z,49.30
2019-02-19T20:31:33.883Z,49.27
2019-02-19T20:34:39.778Z,46.90
2019-02-19T20:37:53.651Z,47.07
2019-02-19T20:40:53.281Z,48.13
2019-02-19T20:43:59.109Z,51.50
2019-02-19T20:47:05.017Z,49.53
2019-02-19T20:50:11.117Z,50.00
2019-02-19T20:53:16.912Z,50.87
2019-02-19T20:56:23.611Z,55.87
2019-02-19T20:59:29.565Z,67.50
2019-02-19T21:02:36.574Z,70.17
2019-02-19T21:05:42.698Z,56.53
2019-02-19T21:08:48.728Z,47.83
2019-02-19T21:11:54.641Z,46.80
2019-02-19T21:15:00.860Z,47.57
2019-02-19T21:18:07.450Z,43.97
2019-02-19T21:21:13.344Z,42.83
2019-02-19T21:24:19.411Z,39.83
2019-02-19T21:27:25.398Z,41.57
2019-02-19T21:30:31.481Z,41.47
2019-02-19T21:33:37.396Z,41.10
2019-02-19T21:36:43.347Z,39.27
2019-02-19T21:39:49.190Z,40.13
2019-02-19T21:42:55.084Z,35.70
2019-02-19T21:46:00.974Z,35.40
2019-02-19T21:49:08.178Z,33.53
2019-02-19T21:52:14.082Z,35.53
2019-02-19T21:55:19.972Z,35.67
2019-02-19T21:58:26.008Z,37.17
2019-02-19T22:01:32.222Z,37.10
2019-02-19T22:04:38.276Z,41.30
2019-02-19T22:07:44.463Z,43.83
2019-02-19T22:10:50.434Z,43.87
2019-02-19T22:13:57.332Z,44.10
2019-02-19T22:17:03.499Z,45.67
2019-02-19T22:20:16.042Z,44.37
2019-02-19T22:23:22.002Z,44.27
2019-02-19T22:26:27.990Z,44.80
2019-02-19T22:29:34.046Z,46.00
2019-02-19T22:32:40.007Z,47.07
2019-02-19T22:35:45.877Z,45.10
2019-02-19T22:38:51.740Z,43.80
2019-02-19T22:41:57.624Z,42.67
2019-02-19T22:45:03.552Z,43.70
2019-02-19T22:48:10.734Z,43.77
2019-02-19T22:51:16.652Z,44.20
2019-02-19T22:54:44.663Z,45.17
2019-02-19T22:57:50.596Z,45.53
2019-02-19T23:01:16.220Z,45.33
2019-02-19T23:04:22.687Z,45.80
2019-02-19T23:07:28.711Z,47.90
2019-02-19T23:10:34.576Z,46.10
2019-02-19T23:13:41.204Z,47.13
2019-02-19T23:16:47.193Z,46.73
2019-02-19T23:19:53.100Z,46.10
2019-02-19T23:22:58.976Z,44.70
2019-02-19T23:26:05.038Z,43.97
2019-02-19T23:29:11.023Z,45.70
2019-02-19T23:32:16.895Z,45.07
2019-02-19T23:35:36.738Z,45.03
2019-02-19T23:38:42.577Z,44.03
2019-02-19T23:41:48.483Z,46.70
2019-02-19T23:44:54.480Z,45.73
2019-02-19T23:48:00.376Z,44.93
2019-02-19T23:51:06.257Z,44.87
2019-02-19T23:54:12.168Z,44.50
2019-02-19T23:57:18.110Z,45.83
